sensor_id;sensor_type;location;lat;lon;timestamp;P1;durP1;ratioP1;P2;durP2;ratioP2
5153;SDS011;2595;53.584;10.084;2022-11-25T00:02:15;12.97;;;11.23;;
5153;SDS011;2595;53.584;10.084;2022-11-25T00:04:41;11.23;;;9.43;;
5153;SDS011;2595;53.584;10.084;2022-11-25T00:07:06;11.27;;;9.30;;
5153;SDS011;2595;53.584;10.084;2022-11-25T00:09:32;13.43;;;11.30;;
5153;SDS011;2595;53.584;10.084;2022-11-25T00:11:57;11.20;;;10.10;;
5153;SDS011;2595;53.584;10.084;2022-11-25T00:14:23;13.07;;;10.33;;
5153;SDS011;2595;53.584;10.084;2022-11-25T00:16:48;11.40;;;10.30;;
5153;SDS011;2595;53.584;10.084;2022-11-25T00:19:14;11.40;;;10.30;;
5153;SDS011;2595;53.584;10.084;2022-11-25T00:21:40;9.70;;;8.57;;
5153;SDS011;2595;53.584;10.084;2022-11-25T00:24:06;9.23;;;8.33;;
5153;SDS011;2595;53.584;10.084;2022-11-25T00:26:32;10.90;;;8.53;;
5153;SDS011;2595;53.584;10.084;2022-11-25T00:28:59;10.57;;;9.57;;
5153;SDS011;2595;53.584;10.084;2022-11-25T00:31:27;12.57;;;10.60;;
5153;SDS011;2595;53.584;10.084;2022-11-25T00:33:54;13.93;;;10.27;;
5153;SDS011;2595;53.584;10.084;2022-11-25T00:36:21;13.50;;;11.80;;
5153;SDS011;2595;53.584;10.084;2022-11-25T00:38:59;18.20;;;12.03;;
5153;SDS011;2595;53.584;10.084;2022-11-25T00:41:35;11.63;;;10.50;;
5153;SDS011;2595;53.584;10.084;2022-11-25T00:44:19;15.80;;;12.60;;
5153;SDS011;2595;53.584;10.084;2022-11-25T00:47:21;17.23;;;11.83;;
5153;SDS011;2595;53.584;10.084;2022-11-25T00:49:47;17.10;;;12.23;;
5153;SDS011;2595;53.584;10.084;2022-11-25T00:52:24;13.23;;;11.67;;
5153;SDS011;2595;53.584;10.084;2022-11-25T00:54:50;11.83;;;10.83;;
5153;SDS011;2595;53.584;10.084;2022-11-25T00:57:17;18.63;;;11.90;;
5153;SDS011;2595;53.584;10.084;2022-11-25T00:59:44;17.67;;;12.60;;
5153;SDS011;2595;53.584;10.084;2022-11-25T01:02:10;20.47;;;12.37;;
5153;SDS011;2595;53.584;10.084;2022-11-25T01:04:37;15.90;;;12.83;;
5153;SDS011;2595;53.584;10.084;2022-11-25T01:07:03;13.00;;;11.37;;
5153;SDS011;2595;53.584;10.084;2022-11-25T01:09:29;13.87;;;10.00;;
5153;SDS011;2595;53.584;10.084;2022-11-25T01:11:55;17.33;;;10.93;;
5153;SDS011;2595;53.584;10.084;2022-11-25T01:14:20;17.10;;;12.00;;
5153;SDS011;2595;53.584;10.084;2022-11-25T01:16:47;16.57;;;11.47;;
5153;SDS011;2595;53.584;10.084;2022-11-25T01:19:13;14.33;;;12.07;;
5153;SDS011;2595;53.584;10.084;2022-11-25T01:21:39;17.10;;;11.90;;
5153;SDS011;2595;53.584;10.084;2022-11-25T01:24:05;15.33;;;12.23;;
5153;SDS011;2595;53.584;10.084;2022-11-25T01:26:32;13.67;;;11.17;;
5153;SDS011;2595;53.584;10.084;2022-11-25T01:29:00;17.63;;;13.07;;
5153;SDS011;2595;53.584;10.084;2022-11-25T01:31:28;11.63;;;10.53;;
5153;SDS011;2595;53.584;10.084;2022-11-25T01:34:03;12.97;;;11.63;;
5153;SDS011;2595;53.584;10.084;2022-11-25T01:36:35;12.60;;;11.30;;
5153;SDS011;2595;53.584;10.084;2022-11-25T01:39:01;11.97;;;10.80;;
5153;SDS011;2595;53.584;10.084;2022-11-25T01:41:28;10.93;;;9.83;;
5153;SDS011;2595;53.584;10.084;2022-11-25T01:44:12;12.47;;;9.97;;
5153;SDS011;2595;53.584;10.084;2022-11-25T01:46:46;12.13;;;10.80;;
5153;SDS011;2595;53.584;10.084;2022-11-25T01:51:56;11.70;;;10.27;;
5153;SDS011;2595;53.584;10.084;2022-11-25T01:54:58;13.13;;;11.20;;
5153;SDS011;2595;53.584;10.084;2022-11-25T01:57:31;12.37;;;10.70;;
5153;SDS011;2595;53.584;10.084;2022-11-25T02:00:04;14.77;;;11.90;;
5153;SDS011;2595;53.584;10.084;2022-11-25T02:02:32;14.50;;;11.90;;
5153;SDS011;2595;53.584;10.084;2022-11-25T02:04:58;11.80;;;10.60;;
5153;SDS011;2595;53.584;10.084;2022-11-25T02:07:30;14.10;;;11.70;;
5153;SDS011;2595;53.584;10.084;2022-11-25T02:10:01;15.47;;;11.30;;
5153;SDS011;2595;53.584;10.084;2022-11-25T02:12:29;13.23;;;11.20;;
5153;SDS011;2595;53.584;10.084;2022-11-25T02:14:56;12.07;;;10.43;;
5153;SDS011;2595;53.584;10.084;2022-11-25T02:17:23;14.80;;;12.87;;
5153;SDS011;2595;53.584;10.084;2022-11-25T02:19:57;27.93;;;11.67;;
5153;SDS011;2595;53.584;10.084;2022-11-25T02:22:33;14.63;;;10.60;;
5153;SDS011;2595;53.584;10.084;2022-11-25T02:25:24;11.00;;;10.00;;
5153;SDS011;2595;53.584;10.084;2022-11-25T02:28:03;13.27;;;9.77;;
5153;SDS011;2595;53.584;10.084;2022-11-25T02:30:29;12.63;;;9.57;;
5153;SDS011;2595;53.584;10.084;2022-11-25T02:32:56;16.10;;;11.10;;
5153;SDS011;2595;53.584;10.084;2022-11-25T02:35:30;15.70;;;12.23;;
5153;SDS011;2595;53.584;10.084;2022-11-25T02:40:48;11.67;;;10.27;;
5153;SDS011;2595;53.584;10.084;2022-11-25T02:43:17;11.97;;;10.87;;
5153;SDS011;2595;53.584;10.084;2022-11-25T02:45:46;11.87;;;10.10;;
5153;SDS011;2595;53.584;10.084;2022-11-25T02:48:19;13.03;;;10.63;;
5153;SDS011;2595;53.584;10.084;2022-11-25T02:50:45;19.70;;;11.47;;
5153;SDS011;2595;53.584;10.084;2022-11-25T02:53:11;17.60;;;11.43;;
5153;SDS011;2595;53.584;10.084;2022-11-25T02:55:36;21.67;;;13.00;;
5153;SDS011;2595;53.584;10.084;2022-11-25T02:58:02;17.17;;;13.00;;
5153;SDS011;2595;53.584;10.084;2022-11-25T03:00:28;14.53;;;11.97;;
5153;SDS011;2595;53.584;10.084;2022-11-25T03:02:53;16.47;;;12.53;;
5153;SDS011;2595;53.584;10.084;2022-11-25T03:05:20;15.83;;;12.27;;
5153;SDS011;2595;53.584;10.084;2022-11-25T03:07:46;20.93;;;13.43;;
5153;SDS011;2595;53.584;10.084;2022-11-25T03:10:12;22.73;;;12.67;;
5153;SDS011;2595;53.584;10.084;2022-11-25T03:12:38;22.37;;;12.93;;
5153;SDS011;2595;53.584;10.084;2022-11-25T03:15:04;16.93;;;12.07;;
5153;SDS011;2595;53.584;10.084;2022-11-25T03:17:30;17.70;;;12.70;;
5153;SDS011;2595;53.584;10.084;2022-11-25T03:19:56;15.83;;;11.20;;
5153;SDS011;2595;53.584;10.084;2022-11-25T03:22:21;15.40;;;12.43;;
5153;SDS011;2595;53.584;10.084;2022-11-25T03:24:47;14.80;;;12.80;;
5153;SDS011;2595;53.584;10.084;2022-11-25T03:27:13;18.43;;;14.70;;
5153;SDS011;2595;53.584;10.084;2022-11-25T03:29:38;15.67;;;13.50;;
5153;SDS011;2595;53.584;10.084;2022-11-25T03:32:04;17.03;;;13.00;;
5153;SDS011;2595;53.584;10.084;2022-11-25T03:34:30;15.77;;;12.87;;
5153;SDS011;2595;53.584;10.084;2022-11-25T03:36:55;20.10;;;13.23;;
5153;SDS011;2595;53.584;10.084;2022-11-25T03:39:21;15.63;;;12.90;;
5153;SDS011;2595;53.584;10.084;2022-11-25T03:41:47;16.80;;;11.67;;
5153;SDS011;2595;53.584;10.084;2022-11-25T03:44:13;20.30;;;12.40;;
5153;SDS011;2595;53.584;10.084;2022-11-25T03:46:39;15.13;;;11.57;;
5153;SDS011;2595;53.584;10.084;2022-11-25T03:49:05;19.50;;;13.47;;
5153;SDS011;2595;53.584;10.084;2022-11-25T03:51:30;18.00;;;12.30;;
5153;SDS011;2595;53.584;10.084;2022-11-25T03:53:56;17.77;;;12.50;;
5153;SDS011;2595;53.584;10.084;2022-11-25T03:56:21;16.10;;;11.80;;
5153;SDS011;2595;53.584;10.084;2022-11-25T03:58:47;17.77;;;10.60;;
5153;SDS011;2595;53.584;10.084;2022-11-25T04:01:13;12.77;;;10.60;;
5153;SDS011;2595;53.584;10.084;2022-11-25T04:03:38;13.03;;;11.57;;
5153;SDS011;2595;53.584;10.084;2022-11-25T04:06:04;18.20;;;10.60;;
5153;SDS011;2595;53.584;10.084;2022-11-25T04:08:29;15.07;;;11.83;;
5153;SDS011;2595;53.584;10.084;2022-11-25T04:10:55;17.73;;;11.57;;
5153;SDS011;2595;53.584;10.084;2022-11-25T04:13:21;12.47;;;10.97;;
5153;SDS011;2595;53.584;10.084;2022-11-25T04:15:47;14.83;;;12.37;;
5153;SDS011;2595;53.584;10.084;2022-11-25T04:18:14;15.17;;;10.07;;
5153;SDS011;2595;53.584;10.084;2022-11-25T04:20:40;18.73;;;11.40;;
5153;SDS011;2595;53.584;10.084;2022-11-25T04:23:06;13.40;;;9.70;;
5153;SDS011;2595;53.584;10.084;2022-11-25T04:25:33;14.20;;;9.67;;
5153;SDS011;2595;53.584;10.084;2022-11-25T04:28:00;11.80;;;8.80;;
5153;SDS011;2595;53.584;10.084;2022-11-25T04:30:26;11.33;;;10.20;;
5153;SDS011;2595;53.584;10.084;2022-11-25T04:32:51;10.43;;;9.33;;
5153;SDS011;2595;53.584;10.084;2022-11-25T04:35:17;13.53;;;10.53;;
5153;SDS011;2595;53.584;10.084;2022-11-25T04:37:42;15.50;;;9.93;;
5153;SDS011;2595;53.584;10.084;2022-11-25T04:40:08;20.47;;;10.43;;
5153;SDS011;2595;53.584;10.084;2022-11-25T04:42:34;18.50;;;8.80;;
5153;SDS011;2595;53.584;10.084;2022-11-25T04:45:06;8.40;;;7.70;;
5153;SDS011;2595;53.584;10.084;2022-11-25T04:47:34;10.10;;;9.20;;
5153;SDS011;2595;53.584;10.084;2022-11-25T04:50:00;12.43;;;9.20;;
5153;SDS011;2595;53.584;10.084;2022-11-25T04:52:26;9.30;;;8.27;;
5153;SDS011;2595;53.584;10.084;2022-11-25T04:54:52;13.17;;;10.00;;
5153;SDS011;2595;53.584;10.084;2022-11-25T04:57:18;9.50;;;8.80;;
5153;SDS011;2595;53.584;10.084;2022-11-25T04:59:43;9.87;;;8.20;;
5153;SDS011;2595;53.584;10.084;2022-11-25T05:04:46;10.13;;;8.30;;
5153;SDS011;2595;53.584;10.084;2022-11-25T05:07:14;15.50;;;7.90;;
5153;SDS011;2595;53.584;10.084;2022-11-25T05:09:41;9.33;;;8.37;;
5153;SDS011;2595;53.584;10.084;2022-11-25T05:12:07;12.43;;;8.50;;
5153;SDS011;2595;53.584;10.084;2022-11-25T05:14:34;13.17;;;9.20;;
5153;SDS011;2595;53.584;10.084;2022-11-25T05:17:01;9.70;;;8.77;;
5153;SDS011;2595;53.584;10.084;2022-11-25T05:19:27;8.00;;;7.30;;
5153;SDS011;2595;53.584;10.084;2022-11-25T05:21:53;11.67;;;7.87;;
5153;SDS011;2595;53.584;10.084;2022-11-25T05:24:18;8.80;;;8.00;;
5153;SDS011;2595;53.584;10.084;2022-11-25T05:26:44;12.70;;;7.73;;
5153;SDS011;2595;53.584;10.084;2022-11-25T05:29:10;7.87;;;7.07;;
5153;SDS011;2595;53.584;10.084;2022-11-25T05:31:35;7.53;;;6.30;;
5153;SDS011;2595;53.584;10.084;2022-11-25T05:34:01;7.70;;;7.00;;
5153;SDS011;2595;53.584;10.084;2022-11-25T05:36:28;13.20;;;8.10;;
5153;SDS011;2595;53.584;10.084;2022-11-25T05:38:55;11.77;;;7.10;;
5153;SDS011;2595;53.584;10.084;2022-11-25T05:41:21;8.13;;;7.07;;
5153;SDS011;2595;53.584;10.084;2022-11-25T05:43:47;8.57;;;7.10;;
5153;SDS011;2595;53.584;10.084;2022-11-25T05:46:13;9.33;;;7.47;;
5153;SDS011;2595;53.584;10.084;2022-11-25T05:48:39;13.93;;;8.80;;
5153;SDS011;2595;53.584;10.084;2022-11-25T05:51:05;9.20;;;8.23;;
5153;SDS011;2595;53.584;10.084;2022-11-25T05:53:31;8.70;;;7.90;;
5153;SDS011;2595;53.584;10.084;2022-11-25T05:56:01;12.47;;;8.67;;
5153;SDS011;2595;53.584;10.084;2022-11-25T05:58:28;8.50;;;7.63;;
5153;SDS011;2595;53.584;10.084;2022-11-25T06:00:55;8.60;;;7.80;;
5153;SDS011;2595;53.584;10.084;2022-11-25T06:03:25;18.00;;;8.57;;
5153;SDS011;2595;53.584;10.084;2022-11-25T06:05:51;13.10;;;8.30;;
5153;SDS011;2595;53.584;10.084;2022-11-25T06:08:19;9.70;;;8.30;;
5153;SDS011;2595;53.584;10.084;2022-11-25T06:10:44;10.37;;;9.30;;
5153;SDS011;2595;53.584;10.084;2022-11-25T06:13:10;13.90;;;8.33;;
5153;SDS011;2595;53.584;10.084;2022-11-25T06:15:42;10.50;;;8.30;;
5153;SDS011;2595;53.584;10.084;2022-11-25T06:18:09;9.53;;;8.63;;
5153;SDS011;2595;53.584;10.084;2022-11-25T06:20:35;12.77;;;7.83;;
5153;SDS011;2595;53.584;10.084;2022-11-25T06:23:01;11.20;;;8.70;;
5153;SDS011;2595;53.584;10.084;2022-11-25T06:25:26;10.80;;;8.57;;
5153;SDS011;2595;53.584;10.084;2022-11-25T06:27:53;9.17;;;7.80;;
5153;SDS011;2595;53.584;10.084;2022-11-25T06:30:19;13.23;;;8.90;;
5153;SDS011;2595;53.584;10.084;2022-11-25T06:32:45;12.50;;;8.27;;
5153;SDS011;2595;53.584;10.084;2022-11-25T06:35:10;9.53;;;8.70;;
5153;SDS011;2595;53.584;10.084;2022-11-25T06:37:36;10.53;;;8.53;;
5153;SDS011;2595;53.584;10.084;2022-11-25T06:40:02;8.70;;;7.90;;
5153;SDS011;2595;53.584;10.084;2022-11-25T06:42:28;14.07;;;8.87;;
5153;SDS011;2595;53.584;10.084;2022-11-25T06:44:53;11.00;;;8.30;;
5153;SDS011;2595;53.584;10.084;2022-11-25T06:47:19;13.27;;;9.40;;
5153;SDS011;2595;53.584;10.084;2022-11-25T06:49:45;14.87;;;8.87;;
5153;SDS011;2595;53.584;10.084;2022-11-25T06:52:10;8.83;;;8.10;;
5153;SDS011;2595;53.584;10.084;2022-11-25T06:54:36;11.67;;;7.20;;
5153;SDS011;2595;53.584;10.084;2022-11-25T06:57:08;11.37;;;8.30;;
5153;SDS011;2595;53.584;10.084;2022-11-25T06:59:35;12.13;;;7.50;;
5153;SDS011;2595;53.584;10.084;2022-11-25T07:02:00;12.40;;;8.53;;
5153;SDS011;2595;53.584;10.084;2022-11-25T07:04:26;10.20;;;7.73;;
5153;SDS011;2595;53.584;10.084;2022-11-25T07:06:52;8.63;;;7.83;;
5153;SDS011;2595;53.584;10.084;2022-11-25T07:09:17;9.40;;;7.87;;
5153;SDS011;2595;53.584;10.084;2022-11-25T07:11:43;7.80;;;7.00;;
5153;SDS011;2595;53.584;10.084;2022-11-25T07:14:10;9.73;;;7.63;;
5153;SDS011;2595;53.584;10.084;2022-11-25T07:16:39;16.57;;;7.33;;
5153;SDS011;2595;53.584;10.084;2022-11-25T07:19:07;11.20;;;7.70;;
5153;SDS011;2595;53.584;10.084;2022-11-25T07:21:34;12.03;;;6.97;;
5153;SDS011;2595;53.584;10.084;2022-11-25T07:24:01;8.17;;;7.13;;
5153;SDS011;2595;53.584;10.084;2022-11-25T07:26:29;12.50;;;7.70;;
5153;SDS011;2595;53.584;10.084;2022-11-25T07:28:58;10.83;;;8.83;;
5153;SDS011;2595;53.584;10.084;2022-11-25T07:31:26;9.30;;;8.60;;
5153;SDS011;2595;53.584;10.084;2022-11-25T07:33:54;10.30;;;8.60;;
5153;SDS011;2595;53.584;10.084;2022-11-25T07:36:21;9.63;;;7.13;;
5153;SDS011;2595;53.584;10.084;2022-11-25T07:38:47;7.70;;;6.50;;
5153;SDS011;2595;53.584;10.084;2022-11-25T07:41:15;8.33;;;6.50;;
5153;SDS011;2595;53.584;10.084;2022-11-25T07:43:46;6.67;;;6.17;;
5153;SDS011;2595;53.584;10.084;2022-11-25T07:46:17;6.90;;;6.17;;
5153;SDS011;2595;53.584;10.084;2022-11-25T07:48:45;7.37;;;6.53;;
5153;SDS011;2595;53.584;10.084;2022-11-25T07:51:18;7.93;;;5.80;;
5153;SDS011;2595;53.584;10.084;2022-11-25T07:53:46;6.43;;;5.27;;
5153;SDS011;2595;53.584;10.084;2022-11-25T07:56:13;5.90;;;5.40;;
5153;SDS011;2595;53.584;10.084;2022-11-25T07:58:40;6.60;;;4.90;;
5153;SDS011;2595;53.584;10.084;2022-11-25T08:01:06;6.53;;;4.37;;
5153;SDS011;2595;53.584;10.084;2022-11-25T08:03:34;6.27;;;5.00;;
5153;SDS011;2595;53.584;10.084;2022-11-25T08:06:05;12.50;;;5.33;;
5153;SDS011;2595;53.584;10.084;2022-11-25T08:08:33;7.67;;;5.60;;
5153;SDS011;2595;53.584;10.084;2022-11-25T08:10:59;6.63;;;4.53;;
5153;SDS011;2595;53.584;10.084;2022-11-25T08:13:25;10.60;;;5.30;;
5153;SDS011;2595;53.584;10.084;2022-11-25T08:15:51;6.00;;;5.47;;
5153;SDS011;2595;53.584;10.084;2022-11-25T08:18:17;6.50;;;5.07;;
5153;SDS011;2595;53.584;10.084;2022-11-25T08:20:43;9.57;;;6.07;;
5153;SDS011;2595;53.584;10.084;2022-11-25T08:23:08;7.37;;;6.07;;
5153;SDS011;2595;53.584;10.084;2022-11-25T08:25:40;5.90;;;5.40;;
5153;SDS011;2595;53.584;10.084;2022-11-25T08:28:06;11.90;;;4.20;;
5153;SDS011;2595;53.584;10.084;2022-11-25T08:30:32;6.73;;;5.07;;
5153;SDS011;2595;53.584;10.084;2022-11-25T08:32:58;5.70;;;5.30;;
5153;SDS011;2595;53.584;10.084;2022-11-25T08:35:24;6.90;;;6.17;;
5153;SDS011;2595;53.584;10.084;2022-11-25T08:37:50;5.97;;;5.33;;
5153;SDS011;2595;53.584;10.084;2022-11-25T08:40:16;9.03;;;5.13;;
5153;SDS011;2595;53.584;10.084;2022-11-25T08:42:42;5.20;;;4.70;;
5153;SDS011;2595;53.584;10.084;2022-11-25T08:45:08;7.77;;;5.23;;
5153;SDS011;2595;53.584;10.084;2022-11-25T08:47:34;9.93;;;5.70;;
5153;SDS011;2595;53.584;10.084;2022-11-25T08:50:00;5.93;;;5.27;;
5153;SDS011;2595;53.584;10.084;2022-11-25T08:52:28;6.60;;;5.40;;
5153;SDS011;2595;53.584;10.084;2022-11-25T08:54:53;7.07;;;6.00;;
5153;SDS011;2595;53.584;10.084;2022-11-25T08:57:19;10.00;;;5.80;;
5153;SDS011;2595;53.584;10.084;2022-11-25T08:59:44;6.27;;;5.70;;
5153;SDS011;2595;53.584;10.084;2022-11-25T09:02:11;5.83;;;5.33;;
5153;SDS011;2595;53.584;10.084;2022-11-25T09:04:39;7.03;;;4.57;;
5153;SDS011;2595;53.584;10.084;2022-11-25T09:07:04;6.63;;;4.93;;
5153;SDS011;2595;53.584;10.084;2022-11-25T09:09:30;8.23;;;5.43;;
5153;SDS011;2595;53.584;10.084;2022-11-25T09:11:56;9.03;;;6.03;;
5153;SDS011;2595;53.584;10.084;2022-11-25T09:14:21;7.40;;;5.50;;
5153;SDS011;2595;53.584;10.084;2022-11-25T09:16:47;5.77;;;5.10;;
5153;SDS011;2595;53.584;10.084;2022-11-25T09:19:13;11.40;;;5.40;;
5153;SDS011;2595;53.584;10.084;2022-11-25T09:21:39;8.37;;;5.90;;
5153;SDS011;2595;53.584;10.084;2022-11-25T09:24:07;7.90;;;5.80;;
5153;SDS011;2595;53.584;10.084;2022-11-25T09:26:33;6.77;;;5.40;;
5153;SDS011;2595;53.584;10.084;2022-11-25T09:29:00;8.80;;;5.87;;
5153;SDS011;2595;53.584;10.084;2022-11-25T09:31:26;5.37;;;4.87;;
5153;SDS011;2595;53.584;10.084;2022-11-25T09:33:52;5.70;;;5.20;;
5153;SDS011;2595;53.584;10.084;2022-11-25T09:36:18;9.23;;;5.63;;
5153;SDS011;2595;53.584;10.084;2022-11-25T09:38:44;7.63;;;5.23;;
5153;SDS011;2595;53.584;10.084;2022-11-25T09:45:02;12.07;;;4.40;;
5153;SDS011;2595;53.584;10.084;2022-11-25T09:56:18;7.10;;;6.40;;
5153;SDS011;2595;53.584;10.084;2022-11-25T09:59:35;6.60;;;5.70;;
5153;SDS011;2595;53.584;10.084;2022-11-25T10:04:37;9.00;;;4.97;;
5153;SDS011;2595;53.584;10.084;2022-11-25T10:07:10;7.43;;;5.83;;
5153;SDS011;2595;53.584;10.084;2022-11-25T10:09:59;6.60;;;5.93;;
5153;SDS011;2595;53.584;10.084;2022-11-25T10:12:28;6.60;;;5.37;;
5153;SDS011;2595;53.584;10.084;2022-11-25T10:14:59;16.67;;;7.20;;
5153;SDS011;2595;53.584;10.084;2022-11-25T10:17:44;10.50;;;6.00;;
5153;SDS011;2595;53.584;10.084;2022-11-25T10:22:53;7.27;;;6.60;;
5153;SDS011;2595;53.584;10.084;2022-11-25T10:25:24;19.80;;;8.70;;
5153;SDS011;2595;53.584;10.084;2022-11-25T10:28:01;8.27;;;6.60;;
5153;SDS011;2595;53.584;10.084;2022-11-25T10:31:03;11.40;;;8.30;;
5153;SDS011;2595;53.584;10.084;2022-11-25T10:33:45;9.77;;;8.83;;
5153;SDS011;2595;53.584;10.084;2022-11-25T10:36:33;7.30;;;6.60;;
5153;SDS011;2595;53.584;10.084;2022-11-25T10:39:12;9.40;;;7.07;;
5153;SDS011;2595;53.584;10.084;2022-11-25T10:41:56;6.63;;;5.10;;
5153;SDS011;2595;53.584;10.084;2022-11-25T10:44:26;7.40;;;6.13;;
5153;SDS011;2595;53.584;10.084;2022-11-25T10:52:29;7.70;;;6.73;;
5153;SDS011;2595;53.584;10.084;2022-11-25T10:55:16;9.90;;;6.80;;
5153;SDS011;2595;53.584;10.084;2022-11-25T10:57:43;9.47;;;7.30;;
5153;SDS011;2595;53.584;10.084;2022-11-25T11:02:50;12.17;;;7.30;;
5153;SDS011;2595;53.584;10.084;2022-11-25T11:05:26;9.67;;;8.63;;
5153;SDS011;2595;53.584;10.084;2022-11-25T11:10:38;11.97;;;9.67;;
5153;SDS011;2595;53.584;10.084;2022-11-25T11:13:05;17.77;;;9.30;;
5153;SDS011;2595;53.584;10.084;2022-11-25T11:15:46;8.97;;;7.10;;
5153;SDS011;2595;53.584;10.084;2022-11-25T11:20:50;8.47;;;7.03;;
5153;SDS011;2595;53.584;10.084;2022-11-25T11:23:21;13.07;;;6.33;;
5153;SDS011;2595;53.584;10.084;2022-11-25T11:25:55;17.23;;;6.60;;
5153;SDS011;2595;53.584;10.084;2022-11-25T11:33:42;15.37;;;10.40;;
5153;SDS011;2595;53.584;10.084;2022-11-25T11:46:49;21.00;;;14.00;;
5153;SDS011;2595;53.584;10.084;2022-11-25T11:54:53;14.63;;;11.00;;
5153;SDS011;2595;53.584;10.084;2022-11-25T12:00:22;19.03;;;10.43;;
5153;SDS011;2595;53.584;10.084;2022-11-25T12:05:38;9.03;;;8.17;;
5153;SDS011;2595;53.584;10.084;2022-11-25T12:15:56;17.97;;;10.60;;
5153;SDS011;2595;53.584;10.084;2022-11-25T12:18:49;10.07;;;8.43;;
5153;SDS011;2595;53.584;10.084;2022-11-25T12:29:36;11.53;;;8.10;;
5153;SDS011;2595;53.584;10.084;2022-11-25T12:35:30;8.77;;;7.97;;
5153;SDS011;2595;53.584;10.084;2022-11-25T12:40:43;17.23;;;10.23;;
5153;SDS011;2595;53.584;10.084;2022-11-25T12:48:54;8.60;;;7.13;;
5153;SDS011;2595;53.584;10.084;2022-11-25T12:51:38;14.23;;;7.60;;
5153;SDS011;2595;53.584;10.084;2022-11-25T12:54:31;11.93;;;7.73;;
5153;SDS011;2595;53.584;10.084;2022-11-25T12:59:42;7.60;;;6.50;;
5153;SDS011;2595;53.584;10.084;2022-11-25T13:10:35;10.70;;;7.53;;
5153;SDS011;2595;53.584;10.084;2022-11-25T13:15:45;13.00;;;8.50;;
5153;SDS011;2595;53.584;10.084;2022-11-25T13:18:14;11.83;;;7.47;;
5153;SDS011;2595;53.584;10.084;2022-11-25T13:20:42;14.97;;;8.20;;
5153;SDS011;2595;53.584;10.084;2022-11-25T13:25:42;9.57;;;8.60;;
5153;SDS011;2595;53.584;10.084;2022-11-25T13:28:31;11.33;;;8.37;;
5153;SDS011;2595;53.584;10.084;2022-11-25T13:46:43;11.13;;;7.70;;
5153;SDS011;2595;53.584;10.084;2022-11-25T13:54:53;10.20;;;6.63;;
5153;SDS011;2595;53.584;10.084;2022-11-25T14:00:40;7.57;;;6.63;;
5153;SDS011;2595;53.584;10.084;2022-11-25T14:02:45;5.87;;;5.37;;
5153;SDS011;2595;53.584;10.084;2022-11-25T14:10:41;9.83;;;7.40;;
5153;SDS011;2595;53.584;10.084;2022-11-25T14:26:54;10.67;;;9.47;;
5153;SDS011;2595;53.584;10.084;2022-11-25T14:29:24;10.73;;;8.30;;
5153;SDS011;2595;53.584;10.084;2022-11-25T14:31:53;8.17;;;7.30;;
5153;SDS011;2595;53.584;10.084;2022-11-25T14:34:32;12.87;;;8.73;;
5153;SDS011;2595;53.584;10.084;2022-11-25T14:39:32;13.33;;;7.77;;
5153;SDS011;2595;53.584;10.084;2022-11-25T14:47:13;12.00;;;7.90;;
5153;SDS011;2595;53.584;10.084;2022-11-25T14:49:43;12.87;;;9.00;;
5153;SDS011;2595;53.584;10.084;2022-11-25T14:52:17;9.17;;;8.27;;
5153;SDS011;2595;53.584;10.084;2022-11-25T14:54:45;14.50;;;9.30;;
5153;SDS011;2595;53.584;10.084;2022-11-25T14:57:12;9.53;;;8.50;;
5153;SDS011;2595;53.584;10.084;2022-11-25T14:59:38;10.70;;;8.30;;
5153;SDS011;2595;53.584;10.084;2022-11-25T15:02:04;12.20;;;9.07;;
5153;SDS011;2595;53.584;10.084;2022-11-25T15:04:30;19.17;;;8.30;;
5153;SDS011;2595;53.584;10.084;2022-11-25T15:06:57;12.40;;;7.77;;
5153;SDS011;2595;53.584;10.084;2022-11-25T15:09:36;9.83;;;7.67;;
5153;SDS011;2595;53.584;10.084;2022-11-25T15:12:09;11.97;;;8.70;;
5153;SDS011;2595;53.584;10.084;2022-11-25T15:14:42;7.13;;;6.43;;
5153;SDS011;2595;53.584;10.084;2022-11-25T15:17:23;8.37;;;7.70;;
5153;SDS011;2595;53.584;10.084;2022-11-25T15:19:53;6.53;;;5.93;;
5153;SDS011;2595;53.584;10.084;2022-11-25T15:22:21;7.30;;;6.60;;
5153;SDS011;2595;53.584;10.084;2022-11-25T15:24:47;9.17;;;7.90;;
5153;SDS011;2595;53.584;10.084;2022-11-25T15:27:15;9.23;;;7.13;;
5153;SDS011;2595;53.584;10.084;2022-11-25T15:29:46;9.33;;;7.70;;
5153;SDS011;2595;53.584;10.084;2022-11-25T15:32:14;8.53;;;7.80;;
5153;SDS011;2595;53.584;10.084;2022-11-25T15:34:42;13.77;;;8.67;;
5153;SDS011;2595;53.584;10.084;2022-11-25T15:37:09;16.20;;;10.10;;
5153;SDS011;2595;53.584;10.084;2022-11-25T15:39:35;11.57;;;7.60;;
5153;SDS011;2595;53.584;10.084;2022-11-25T15:44:37;19.97;;;14.77;;
5153;SDS011;2595;53.584;10.084;2022-11-25T15:47:33;12.30;;;11.20;;
5153;SDS011;2595;53.584;10.084;2022-11-25T15:50:06;12.40;;;11.30;;
5153;SDS011;2595;53.584;10.084;2022-11-25T15:52:46;12.10;;;10.90;;
5153;SDS011;2595;53.584;10.084;2022-11-25T15:57:57;10.37;;;9.47;;
5153;SDS011;2595;53.584;10.084;2022-11-25T16:03:28;8.23;;;7.73;;
5153;SDS011;2595;53.584;10.084;2022-11-25T16:05:58;9.00;;;8.20;;
5153;SDS011;2595;53.584;10.084;2022-11-25T16:08:26;9.20;;;8.37;;
5153;SDS011;2595;53.584;10.084;2022-11-25T16:10:58;11.30;;;10.23;;
5153;SDS011;2595;53.584;10.084;2022-11-25T16:13:34;11.50;;;10.40;;
5153;SDS011;2595;53.584;10.084;2022-11-25T16:18:41;12.63;;;11.40;;
5153;SDS011;2595;53.584;10.084;2022-11-25T16:21:16;23.10;;;17.90;;
5153;SDS011;2595;53.584;10.084;2022-11-25T16:23:46;37.40;;;25.10;;
5153;SDS011;2595;53.584;10.084;2022-11-25T16:26:16;33.93;;;22.43;;
5153;SDS011;2595;53.584;10.084;2022-11-25T16:28:52;26.00;;;19.30;;
5153;SDS011;2595;53.584;10.084;2022-11-25T16:31:23;20.60;;;17.10;;
5153;SDS011;2595;53.584;10.084;2022-11-25T16:33:52;22.30;;;13.43;;
5153;SDS011;2595;53.584;10.084;2022-11-25T16:36:54;14.60;;;12.73;;
5153;SDS011;2595;53.584;10.084;2022-11-25T16:39:20;12.07;;;10.80;;
5153;SDS011;2595;53.584;10.084;2022-11-25T16:41:53;17.67;;;11.67;;
5153;SDS011;2595;53.584;10.084;2022-11-25T16:44:25;14.23;;;10.00;;
5153;SDS011;2595;53.584;10.084;2022-11-25T16:46:52;13.13;;;10.80;;
5153;SDS011;2595;53.584;10.084;2022-11-25T16:49:18;15.30;;;10.40;;
5153;SDS011;2595;53.584;10.084;2022-11-25T16:51:45;22.33;;;10.93;;
5153;SDS011;2595;53.584;10.084;2022-11-25T16:54:11;23.00;;;12.10;;
5153;SDS011;2595;53.584;10.084;2022-11-25T16:56:40;12.60;;;10.40;;
5153;SDS011;2595;53.584;10.084;2022-11-25T16:59:22;12.37;;;10.60;;
5153;SDS011;2595;53.584;10.084;2022-11-25T17:01:54;17.63;;;12.30;;
5153;SDS011;2595;53.584;10.084;2022-11-25T17:04:20;18.30;;;10.70;;
5153;SDS011;2595;53.584;10.084;2022-11-25T17:06:46;15.63;;;11.50;;
5153;SDS011;2595;53.584;10.084;2022-11-25T17:09:12;17.67;;;12.90;;
5153;SDS011;2595;53.584;10.084;2022-11-25T17:11:40;17.33;;;11.13;;
5153;SDS011;2595;53.584;10.084;2022-11-25T17:14:17;13.23;;;10.83;;
5153;SDS011;2595;53.584;10.084;2022-11-25T17:16:57;12.13;;;10.87;;
5153;SDS011;2595;53.584;10.084;2022-11-25T17:19:27;10.60;;;9.63;;
5153;SDS011;2595;53.584;10.084;2022-11-25T17:21:52;14.87;;;10.47;;
5153;SDS011;2595;53.584;10.084;2022-11-25T17:24:22;12.60;;;11.57;;
5153;SDS011;2595;53.584;10.084;2022-11-25T17:26:50;11.77;;;10.70;;
5153;SDS011;2595;53.584;10.084;2022-11-25T17:29:26;12.20;;;10.80;;
5153;SDS011;2595;53.584;10.084;2022-11-25T17:31:57;12.83;;;11.40;;
5153;SDS011;2595;53.584;10.084;2022-11-25T17:34:22;15.73;;;10.70;;
5153;SDS011;2595;53.584;10.084;2022-11-25T17:36:48;11.40;;;10.27;;
5153;SDS011;2595;53.584;10.084;2022-11-25T17:39:16;12.90;;;10.20;;
5153;SDS011;2595;53.584;10.084;2022-11-25T17:41:42;14.43;;;10.27;;
5153;SDS011;2595;53.584;10.084;2022-11-25T17:44:13;14.20;;;10.90;;
5153;SDS011;2595;53.584;10.084;2022-11-25T17:46:45;16.30;;;11.57;;
5153;SDS011;2595;53.584;10.084;2022-11-25T17:49:14;16.87;;;11.30;;
5153;SDS011;2595;53.584;10.084;2022-11-25T17:51:40;11.90;;;10.50;;